N84AB KJAX-KATL
Flight info
| Callsign | N84AB |
|---|---|
| Flight time | 1h 20m |
| Altitude | 24000 |
| Route | BRSTL1 BAXLY LAIRI LARZZ JJEDI4 |
| Aircraft | C750/M-SBDE3FGHRWXY/S |
Departure
| Time | 2026-05-04 13:39 |
|---|---|
| Airport | Jacksonville International Airport (KJAX) |
Arrival
| Time | 2026-05-04 15:00 |
|---|---|
| Airport | Hartsfield Jackson Atlanta International Airport (KATL) |
| Time | Latitude | Longitude | Altitude | Speed | Heading |
|---|---|---|---|---|---|
| 2026-05-04 13:01 | 30.48580 | -81.68195 | 37 ft | 0 kts | 280° |
| 2026-05-04 13:25 | 30.48577 | -81.68176 | 37 ft | 4 kts | 283° |
| 2026-05-04 13:25 | 30.48570 | -81.68146 | 36 ft | 4 kts | 293° |
| 2026-05-04 13:26 | 30.48557 | -81.68122 | 35 ft | 4 kts | 331° |
| 2026-05-04 13:26 | 30.48542 | -81.68117 | 34 ft | 1 kts | 9° |
| 2026-05-04 13:26 | 30.48540 | -81.68118 | 34 ft | 0 kts | 10° |
| 2026-05-04 13:32 | 30.48544 | -81.68120 | 34 ft | 3 kts | 340° |
| 2026-05-04 13:32 | 30.48541 | -81.68137 | 35 ft | 3 kts | 215° |
| 2026-05-04 13:32 | 30.48511 | -81.68134 | 34 ft | 8 kts | 174° |
| 2026-05-04 13:33 | 30.48446 | -81.68138 | 33 ft | 9 kts | 191° |
| 2026-05-04 13:33 | 30.48400 | -81.68174 | 33 ft | 8 kts | 240° |
| 2026-05-04 13:33 | 30.48383 | -81.68228 | 34 ft | 7 kts | 251° |
| 2026-05-04 13:33 | 30.48369 | -81.68275 | 34 ft | 6 kts | 251° |
| 2026-05-04 13:34 | 30.48343 | -81.68368 | 33 ft | 15 kts | 251° |
| 2026-05-04 13:34 | 30.48306 | -81.68484 | 32 ft | 15 kts | 249° |
| 2026-05-04 13:34 | 30.48313 | -81.68572 | 33 ft | 14 kts | 303° |
| 2026-05-04 13:34 | 30.48379 | -81.68666 | 32 ft | 15 kts | 312° |
| 2026-05-04 13:35 | 30.48446 | -81.68750 | 33 ft | 13 kts | 311° |
| 2026-05-04 13:35 | 30.48590 | -81.68945 | 30 ft | 18 kts | 311° |
| 2026-05-04 13:35 | 30.48683 | -81.69071 | 31 ft | 21 kts | 310° |
| 2026-05-04 13:36 | 30.48779 | -81.69199 | 29 ft | 22 kts | 310° |
| 2026-05-04 13:36 | 30.48893 | -81.69358 | 32 ft | 29 kts | 309° |
| 2026-05-04 13:36 | 30.49008 | -81.69509 | 34 ft | 16 kts | 312° |
| 2026-05-04 13:36 | 30.49082 | -81.69608 | 36 ft | 16 kts | 309° |
| 2026-05-04 13:37 | 30.49162 | -81.69719 | 35 ft | 18 kts | 311° |
| 2026-05-04 13:37 | 30.49240 | -81.69827 | 35 ft | 17 kts | 310° |
| 2026-05-04 13:37 | 30.49310 | -81.69919 | 34 ft | 11 kts | 315° |
| 2026-05-04 13:37 | 30.49355 | -81.69938 | 33 ft | 11 kts | 6° |
| 2026-05-04 13:38 | 30.49458 | -81.69923 | 31 ft | 12 kts | 358° |
| 2026-05-04 13:38 | 30.49537 | -81.69950 | 30 ft | 12 kts | 339° |
| 2026-05-04 13:38 | 30.49611 | -81.69975 | 31 ft | 10 kts | 359° |
| 2026-05-04 13:38 | 30.49648 | -81.69919 | 31 ft | 11 kts | 73° |
| 2026-05-04 13:39 | 30.49762 | -81.69546 | 34 ft | 106 kts | 70° |
| 2026-05-04 13:39 | 30.50083 | -81.68480 | 164 ft | 161 kts | 71° |
| 2026-05-04 13:39 | 30.50485 | -81.67172 | 747 ft | 175 kts | 69° |
| 2026-05-04 13:39 | 30.50899 | -81.65862 | 1731 ft | 171 kts | 70° |
| 2026-05-04 13:40 | 30.51305 | -81.64562 | 2624 ft | 172 kts | 70° |
| 2026-05-04 13:40 | 30.51854 | -81.63331 | 3459 ft | 179 kts | 46° |
| 2026-05-04 13:40 | 30.53038 | -81.62881 | 4115 ft | 196 kts | 355° |
| 2026-05-04 13:40 | 30.54331 | -81.63408 | 5031 ft | 198 kts | 338° |
| 2026-05-04 13:41 | 30.55454 | -81.64365 | 5857 ft | 209 kts | 305° |
| 2026-05-04 13:41 | 30.56361 | -81.65655 | 6790 ft | 212 kts | 326° |
| 2026-05-04 13:41 | 30.57730 | -81.66299 | 7796 ft | 212 kts | 340° |
| 2026-05-04 13:42 | 30.60311 | -81.67988 | 9962 ft | 214 kts | 323° |
| 2026-05-04 13:42 | 30.61519 | -81.68994 | 10936 ft | 213 kts | 324° |
| 2026-05-04 13:42 | 30.62738 | -81.69958 | 11871 ft | 212 kts | 324° |
| 2026-05-04 13:42 | 30.63960 | -81.70910 | 12817 ft | 211 kts | 324° |
| 2026-05-04 13:43 | 30.65168 | -81.71862 | 13751 ft | 210 kts | 323° |
| 2026-05-04 13:43 | 30.66372 | -81.72812 | 14613 ft | 208 kts | 323° |
| 2026-05-04 13:43 | 30.67160 | -81.73433 | 15164 ft | 207 kts | 322° |
| 2026-05-04 13:43 | 30.68347 | -81.74369 | 16015 ft | 205 kts | 322° |
| 2026-05-04 13:44 | 30.69520 | -81.75293 | 16881 ft | 203 kts | 321° |
| 2026-05-04 13:44 | 30.71062 | -81.76510 | 18042 ft | 202 kts | 321° |
| 2026-05-04 13:44 | 30.72222 | -81.77426 | 18861 ft | 201 kts | 321° |
| 2026-05-04 13:44 | 30.73001 | -81.78041 | 19380 ft | 200 kts | 320° |
| 2026-05-04 13:45 | 30.74152 | -81.78950 | 20158 ft | 199 kts | 320° |
| 2026-05-04 13:45 | 30.75297 | -81.79854 | 20947 ft | 199 kts | 320° |
| 2026-05-04 13:45 | 30.76435 | -81.80752 | 21741 ft | 198 kts | 319° |
| 2026-05-04 13:45 | 30.77570 | -81.81649 | 22545 ft | 197 kts | 319° |
| 2026-05-04 13:46 | 30.78701 | -81.82544 | 23355 ft | 195 kts | 318° |
| 2026-05-04 13:46 | 30.79807 | -81.83418 | 24034 ft | 197 kts | 318° |
| 2026-05-04 13:46 | 30.81009 | -81.84383 | 24124 ft | 226 kts | 319° |
| 2026-05-04 13:46 | 30.82394 | -81.85488 | 24140 ft | 258 kts | 320° |
| 2026-05-04 13:47 | 30.83972 | -81.86732 | 24146 ft | 289 kts | 320° |
| 2026-05-04 13:47 | 30.85717 | -81.88108 | 24148 ft | 317 kts | 321° |
| 2026-05-04 13:47 | 30.87641 | -81.89581 | 24140 ft | 344 kts | 324° |
| 2026-05-04 13:47 | 30.89770 | -81.91063 | 24140 ft | 368 kts | 324° |
| 2026-05-04 13:48 | 30.92026 | -81.92642 | 24135 ft | 390 kts | 324° |
| 2026-05-04 13:48 | 30.94413 | -81.94325 | 24127 ft | 410 kts | 324° |
| 2026-05-04 13:48 | 30.96898 | -81.96075 | 24127 ft | 427 kts | 325° |
| 2026-05-04 13:48 | 30.99602 | -81.97690 | 24134 ft | 447 kts | 332° |
| 2026-05-04 13:49 | 31.02545 | -81.99066 | 24126 ft | 462 kts | 334° |
| 2026-05-04 13:49 | 31.05553 | -82.00492 | 24126 ft | 471 kts | 333° |
| 2026-05-04 13:49 | 31.08607 | -82.01967 | 24121 ft | 476 kts | 333° |
| 2026-05-04 13:49 | 31.11667 | -82.03434 | 24123 ft | 478 kts | 334° |
| 2026-05-04 13:50 | 31.14706 | -82.04873 | 24130 ft | 479 kts | 334° |
| 2026-05-04 13:50 | 31.17800 | -82.06345 | 24128 ft | 479 kts | 334° |
| 2026-05-04 13:50 | 31.20865 | -82.07814 | 24127 ft | 474 kts | 333° |
| 2026-05-04 13:50 | 31.23926 | -82.09284 | 24127 ft | 474 kts | 333° |
| 2026-05-04 13:51 | 31.26970 | -82.10741 | 24121 ft | 475 kts | 334° |
| 2026-05-04 13:51 | 31.30039 | -82.12208 | 24129 ft | 474 kts | 334° |
| 2026-05-04 13:51 | 31.33082 | -82.13667 | 24131 ft | 474 kts | 333° |
| 2026-05-04 13:51 | 31.36134 | -82.15133 | 24130 ft | 474 kts | 333° |
| 2026-05-04 13:52 | 31.42236 | -82.18063 | 24126 ft | 474 kts | 334° |
| 2026-05-04 13:52 | 31.45296 | -82.19534 | 24125 ft | 474 kts | 333° |
| 2026-05-04 13:52 | 31.48342 | -82.21001 | 24125 ft | 474 kts | 333° |
| 2026-05-04 13:53 | 31.51397 | -82.22471 | 24131 ft | 474 kts | 333° |
| 2026-05-04 13:53 | 31.54450 | -82.23942 | 24128 ft | 474 kts | 333° |
| 2026-05-04 13:53 | 31.57500 | -82.25413 | 24135 ft | 474 kts | 334° |
| 2026-05-04 13:54 | 31.63589 | -82.28352 | 24120 ft | 474 kts | 334° |
| 2026-05-04 13:54 | 31.66601 | -82.29807 | 24123 ft | 474 kts | 334° |
| 2026-05-04 13:54 | 31.72672 | -82.32813 | 24108 ft | 472 kts | 330° |
| 2026-05-04 13:55 | 31.75507 | -82.34750 | 24107 ft | 467 kts | 323° |
| 2026-05-04 13:55 | 31.80539 | -82.39516 | 24116 ft | 464 kts | 316° |
| 2026-05-04 13:55 | 31.83016 | -82.41960 | 24119 ft | 463 kts | 317° |
| 2026-05-04 13:56 | 31.85487 | -82.44390 | 24140 ft | 464 kts | 317° |
| 2026-05-04 13:56 | 31.87956 | -82.46848 | 24128 ft | 464 kts | 316° |
| 2026-05-04 13:56 | 31.92876 | -82.51756 | 24133 ft | 464 kts | 317° |
| 2026-05-04 13:57 | 31.95352 | -82.54211 | 24135 ft | 464 kts | 317° |
| 2026-05-04 13:57 | 31.97782 | -82.56635 | 24134 ft | 464 kts | 316° |
| 2026-05-04 13:58 | 32.05086 | -82.64119 | 24131 ft | 464 kts | 316° |
| 2026-05-04 13:58 | 32.09970 | -82.69078 | 24138 ft | 464 kts | 316° |
| 2026-05-04 13:58 | 32.12407 | -82.71579 | 24136 ft | 464 kts | 316° |
| 2026-05-04 13:59 | 32.14846 | -82.74078 | 24140 ft | 464 kts | 316° |
| 2026-05-04 13:59 | 32.17284 | -82.76565 | 24140 ft | 464 kts | 316° |
| 2026-05-04 13:59 | 32.22155 | -82.81554 | 24139 ft | 463 kts | 316° |
| 2026-05-04 14:00 | 32.24584 | -82.84048 | 24136 ft | 463 kts | 316° |
| 2026-05-04 14:00 | 32.29451 | -82.89039 | 24133 ft | 463 kts | 316° |
| 2026-05-04 14:00 | 32.31885 | -82.91542 | 24148 ft | 463 kts | 316° |
| 2026-05-04 14:01 | 32.34281 | -82.94007 | 24151 ft | 463 kts | 316° |
| 2026-05-04 14:01 | 32.36713 | -82.96509 | 24136 ft | 463 kts | 316° |
| 2026-05-04 14:01 | 32.41575 | -83.01512 | 24137 ft | 463 kts | 316° |
| 2026-05-04 14:02 | 32.44015 | -83.04020 | 24139 ft | 462 kts | 316° |
| 2026-05-04 14:02 | 32.46429 | -83.06504 | 24137 ft | 461 kts | 316° |
| 2026-05-04 14:02 | 32.48853 | -83.09005 | 24138 ft | 462 kts | 316° |
| 2026-05-04 14:02 | 32.51277 | -83.11506 | 24137 ft | 462 kts | 316° |
| 2026-05-04 14:03 | 32.53695 | -83.14001 | 24137 ft | 462 kts | 316° |
| 2026-05-04 14:03 | 32.56121 | -83.16505 | 24136 ft | 461 kts | 316° |
| 2026-05-04 14:03 | 32.58534 | -83.18998 | 24133 ft | 461 kts | 316° |
| 2026-05-04 14:03 | 32.60949 | -83.21499 | 24132 ft | 460 kts | 316° |
| 2026-05-04 14:04 | 32.65768 | -83.26506 | 24128 ft | 460 kts | 316° |
| 2026-05-04 14:04 | 32.68147 | -83.28974 | 23830 ft | 438 kts | 316° |
| 2026-05-04 14:04 | 32.70325 | -83.31230 | 23225 ft | 406 kts | 316° |
| 2026-05-04 14:05 | 32.74363 | -83.35444 | 22218 ft | 379 kts | 316° |
| 2026-05-04 14:05 | 32.76340 | -83.37509 | 21722 ft | 378 kts | 316° |
| 2026-05-04 14:05 | 32.78317 | -83.39565 | 21227 ft | 376 kts | 316° |
| 2026-05-04 14:06 | 32.80280 | -83.41610 | 20729 ft | 375 kts | 316° |
| 2026-05-04 14:06 | 32.82232 | -83.43649 | 20239 ft | 372 kts | 316° |
| 2026-05-04 14:06 | 32.84171 | -83.45676 | 19755 ft | 370 kts | 317° |
| 2026-05-04 14:06 | 32.86097 | -83.47686 | 19269 ft | 367 kts | 317° |
| 2026-05-04 14:07 | 32.88011 | -83.49687 | 18784 ft | 365 kts | 317° |
| 2026-05-04 14:07 | 32.89914 | -83.51680 | 18283 ft | 363 kts | 317° |
| 2026-05-04 14:07 | 32.91800 | -83.53653 | 17790 ft | 356 kts | 317° |
| 2026-05-04 14:07 | 32.93609 | -83.55546 | 17328 ft | 337 kts | 317° |
| 2026-05-04 14:08 | 32.95348 | -83.57369 | 16889 ft | 332 kts | 317° |
| 2026-05-04 14:08 | 32.97090 | -83.59195 | 16414 ft | 335 kts | 317° |
| 2026-05-04 14:08 | 32.98846 | -83.61033 | 15903 ft | 334 kts | 317° |
| 2026-05-04 14:08 | 33.00586 | -83.62854 | 15459 ft | 333 kts | 317° |
| 2026-05-04 14:09 | 33.04040 | -83.66479 | 14581 ft | 333 kts | 317° |
| 2026-05-04 14:09 | 33.05775 | -83.68300 | 14144 ft | 333 kts | 318° |
| 2026-05-04 14:10 | 33.09245 | -83.71944 | 13240 ft | 331 kts | 318° |
| 2026-05-04 14:10 | 33.10924 | -83.73711 | 12809 ft | 312 kts | 318° |
| 2026-05-04 14:10 | 33.12512 | -83.75380 | 12404 ft | 298 kts | 318° |
| 2026-05-04 14:10 | 33.14049 | -83.76997 | 12017 ft | 293 kts | 319° |
| 2026-05-04 14:11 | 33.15579 | -83.78611 | 11633 ft | 292 kts | 319° |
| 2026-05-04 14:11 | 33.18613 | -83.81819 | 10871 ft | 292 kts | 319° |
| 2026-05-04 14:11 | 33.20055 | -83.83533 | 10486 ft | 293 kts | 315° |
| 2026-05-04 14:12 | 33.21502 | -83.85243 | 10107 ft | 293 kts | 317° |
| 2026-05-04 14:12 | 33.22968 | -83.86930 | 9700 ft | 292 kts | 317° |
| 2026-05-04 14:12 | 33.25817 | -83.90341 | 8932 ft | 288 kts | 315° |
| 2026-05-04 14:13 | 33.27227 | -83.92027 | 8540 ft | 287 kts | 316° |
| 2026-05-04 14:13 | 33.28649 | -83.93713 | 8165 ft | 286 kts | 316° |
| 2026-05-04 14:13 | 33.30042 | -83.95374 | 7994 ft | 279 kts | 316° |
| 2026-05-04 14:13 | 33.31423 | -83.97029 | 8004 ft | 281 kts | 316° |
| 2026-05-04 14:14 | 33.32812 | -83.98693 | 8013 ft | 283 kts | 315° |
| 2026-05-04 14:14 | 33.35651 | -84.01989 | 7989 ft | 284 kts | 323° |
| 2026-05-04 14:14 | 33.37453 | -84.02854 | 7980 ft | 282 kts | 351° |
| 2026-05-04 14:15 | 33.41384 | -84.02982 | 8023 ft | 283 kts | 1° |
| 2026-05-04 14:15 | 33.45285 | -84.03059 | 8004 ft | 282 kts | 360° |
| 2026-05-04 14:16 | 33.49213 | -84.03145 | 7995 ft | 282 kts | 360° |
| 2026-05-04 14:16 | 33.51176 | -84.03183 | 7992 ft | 282 kts | 360° |
| 2026-05-04 14:17 | 33.55095 | -84.03268 | 7992 ft | 282 kts | 359° |
| 2026-05-04 14:17 | 33.57058 | -84.03309 | 7991 ft | 282 kts | 359° |
| 2026-05-04 14:17 | 33.60989 | -84.03390 | 7990 ft | 282 kts | 359° |
| 2026-05-04 14:18 | 33.62950 | -84.03432 | 7987 ft | 282 kts | 359° |
| 2026-05-04 14:18 | 33.66879 | -84.03514 | 7990 ft | 282 kts | 359° |
| 2026-05-04 14:19 | 33.70809 | -84.03597 | 7990 ft | 283 kts | 359° |
| 2026-05-04 14:19 | 33.72771 | -84.03638 | 7989 ft | 282 kts | 359° |
| 2026-05-04 14:19 | 33.74737 | -84.03679 | 7992 ft | 282 kts | 359° |
| 2026-05-04 14:19 | 33.76699 | -84.03721 | 7997 ft | 282 kts | 359° |
| 2026-05-04 14:20 | 33.78672 | -84.03763 | 7997 ft | 283 kts | 359° |
| 2026-05-04 14:20 | 33.80634 | -84.03804 | 7996 ft | 283 kts | 359° |
| 2026-05-04 14:20 | 33.82572 | -84.03844 | 8003 ft | 283 kts | 358° |
| 2026-05-04 14:21 | 33.86510 | -84.03928 | 8003 ft | 282 kts | 358° |
| 2026-05-04 14:21 | 33.88471 | -84.03970 | 8007 ft | 282 kts | 358° |
| 2026-05-04 14:21 | 33.90405 | -84.04010 | 7590 ft | 275 kts | 358° |
| 2026-05-04 14:21 | 33.92320 | -84.04012 | 7043 ft | 269 kts | 4° |
| 2026-05-04 14:22 | 33.93969 | -84.03162 | 6840 ft | 255 kts | 41° |
| 2026-05-04 14:22 | 33.94805 | -84.01392 | 6702 ft | 239 kts | 76° |
| 2026-05-04 14:22 | 33.94962 | -83.99421 | 6390 ft | 235 kts | 88° |
| 2026-05-04 14:22 | 33.95020 | -83.97449 | 5999 ft | 237 kts | 88° |
| 2026-05-04 14:23 | 33.95121 | -83.93476 | 5252 ft | 235 kts | 88° |
| 2026-05-04 14:23 | 33.95166 | -83.91492 | 4976 ft | 237 kts | 88° |
| 2026-05-04 14:23 | 33.95209 | -83.89541 | 5017 ft | 232 kts | 88° |
| 2026-05-04 14:24 | 33.95006 | -83.87609 | 4930 ft | 236 kts | 114° |
| 2026-05-04 14:24 | 33.93910 | -83.86234 | 4852 ft | 228 kts | 156° |
| 2026-05-04 14:24 | 33.92386 | -83.85911 | 4939 ft | 224 kts | 184° |
| 2026-05-04 14:24 | 33.90929 | -83.86410 | 4960 ft | 220 kts | 208° |
| 2026-05-04 14:25 | 33.89579 | -83.87308 | 4961 ft | 220 kts | 211° |
| 2026-05-04 14:25 | 33.86809 | -83.88901 | 4951 ft | 220 kts | 206° |
| 2026-05-04 14:25 | 33.85417 | -83.89655 | 4950 ft | 221 kts | 207° |
| 2026-05-04 14:26 | 33.84014 | -83.90434 | 4941 ft | 222 kts | 207° |
| 2026-05-04 14:26 | 33.82613 | -83.91214 | 4931 ft | 222 kts | 207° |
| 2026-05-04 14:26 | 33.81212 | -83.91997 | 4933 ft | 222 kts | 207° |
| 2026-05-04 14:26 | 33.79803 | -83.92770 | 4931 ft | 223 kts | 206° |
| 2026-05-04 14:27 | 33.78388 | -83.93545 | 4931 ft | 224 kts | 206° |
| 2026-05-04 14:27 | 33.77000 | -83.94312 | 4935 ft | 223 kts | 206° |
| 2026-05-04 14:27 | 33.75586 | -83.95098 | 4924 ft | 223 kts | 207° |
| 2026-05-04 14:27 | 33.74178 | -83.95873 | 4931 ft | 223 kts | 206° |
| 2026-05-04 14:28 | 33.72766 | -83.96650 | 4926 ft | 223 kts | 206° |
| 2026-05-04 14:28 | 33.71363 | -83.97425 | 4927 ft | 222 kts | 206° |
| 2026-05-04 14:28 | 33.69962 | -83.98198 | 4933 ft | 222 kts | 206° |
| 2026-05-04 14:28 | 33.68561 | -83.98972 | 4935 ft | 222 kts | 206° |
| 2026-05-04 14:29 | 33.65760 | -84.00589 | 4913 ft | 223 kts | 215° |
| 2026-05-04 14:29 | 33.64655 | -84.03818 | 4797 ft | 215 kts | 277° |
| 2026-05-04 14:30 | 33.65247 | -84.05456 | 4859 ft | 218 kts | 307° |
| 2026-05-04 14:30 | 33.66454 | -84.06544 | 4927 ft | 222 kts | 335° |
| 2026-05-04 14:30 | 33.69466 | -84.06182 | 4974 ft | 233 kts | 30° |
| 2026-05-04 14:31 | 33.70565 | -84.04785 | 4981 ft | 234 kts | 59° |
| 2026-05-04 14:31 | 33.70939 | -84.00981 | 5002 ft | 235 kts | 90° |
| 2026-05-04 14:32 | 33.71182 | -83.97060 | 4999 ft | 233 kts | 85° |
| 2026-05-04 14:32 | 33.71315 | -83.95120 | 4988 ft | 234 kts | 85° |
| 2026-05-04 14:32 | 33.71450 | -83.93166 | 4971 ft | 235 kts | 85° |
| 2026-05-04 14:32 | 33.71584 | -83.91218 | 4991 ft | 234 kts | 85° |
| 2026-05-04 14:33 | 33.71713 | -83.89274 | 4988 ft | 234 kts | 85° |
| 2026-05-04 14:33 | 33.71845 | -83.87329 | 4995 ft | 234 kts | 85° |
| 2026-05-04 14:33 | 33.71977 | -83.85373 | 4985 ft | 237 kts | 85° |
| 2026-05-04 14:33 | 33.72109 | -83.83411 | 4987 ft | 235 kts | 85° |
| 2026-05-04 14:34 | 33.72555 | -83.81557 | 4858 ft | 235 kts | 55° |
| 2026-05-04 14:34 | 33.73781 | -83.80365 | 4902 ft | 224 kts | 28° |
| 2026-05-04 14:34 | 33.75171 | -83.79482 | 5033 ft | 229 kts | 25° |
| 2026-05-04 14:34 | 33.76583 | -83.78588 | 5010 ft | 231 kts | 26° |
| 2026-05-04 14:35 | 33.78002 | -83.77684 | 5012 ft | 231 kts | 26° |
| 2026-05-04 14:35 | 33.79422 | -83.76778 | 5006 ft | 231 kts | 26° |
| 2026-05-04 14:35 | 33.80821 | -83.75888 | 5009 ft | 231 kts | 26° |
| 2026-05-04 14:35 | 33.82236 | -83.74982 | 5012 ft | 231 kts | 26° |
| 2026-05-04 14:36 | 33.83651 | -83.74074 | 4993 ft | 230 kts | 26° |
| 2026-05-04 14:36 | 33.85059 | -83.73169 | 5000 ft | 231 kts | 26° |
| 2026-05-04 14:36 | 33.86470 | -83.72260 | 4993 ft | 229 kts | 26° |
| 2026-05-04 14:36 | 33.87868 | -83.71346 | 4994 ft | 229 kts | 26° |
| 2026-05-04 14:37 | 33.89266 | -83.70434 | 5012 ft | 229 kts | 26° |
| 2026-05-04 14:37 | 33.90675 | -83.69525 | 5018 ft | 229 kts | 26° |
| 2026-05-04 14:37 | 33.92082 | -83.68618 | 5036 ft | 231 kts | 26° |
| 2026-05-04 14:37 | 33.93509 | -83.67701 | 4997 ft | 228 kts | 26° |
| 2026-05-04 14:38 | 33.94907 | -83.66791 | 4987 ft | 229 kts | 26° |
| 2026-05-04 14:38 | 33.95832 | -83.66192 | 5011 ft | 228 kts | 26° |
| 2026-05-04 14:38 | 33.97247 | -83.65273 | 4994 ft | 235 kts | 26° |
| 2026-05-04 14:38 | 33.98679 | -83.64382 | 4983 ft | 228 kts | 19° |
| 2026-05-04 14:39 | 34.00233 | -83.64362 | 4898 ft | 226 kts | 338° |
| 2026-05-04 14:39 | 34.01343 | -83.65571 | 4884 ft | 216 kts | 294° |
| 2026-05-04 14:39 | 34.01729 | -83.67314 | 5029 ft | 216 kts | 280° |
| 2026-05-04 14:40 | 34.02259 | -83.70907 | 5027 ft | 216 kts | 279° |
| 2026-05-04 14:40 | 34.02532 | -83.72701 | 5037 ft | 219 kts | 279° |
| 2026-05-04 14:40 | 34.02807 | -83.74501 | 5017 ft | 218 kts | 280° |
| 2026-05-04 14:40 | 34.03073 | -83.76302 | 5000 ft | 218 kts | 279° |
| 2026-05-04 14:41 | 34.03336 | -83.78058 | 5022 ft | 214 kts | 280° |
| 2026-05-04 14:41 | 34.03608 | -83.79836 | 4998 ft | 218 kts | 280° |
| 2026-05-04 14:41 | 34.04154 | -83.83404 | 5006 ft | 216 kts | 280° |
| 2026-05-04 14:42 | 34.04694 | -83.86968 | 4970 ft | 214 kts | 280° |
| 2026-05-04 14:42 | 34.04971 | -83.88737 | 4999 ft | 214 kts | 280° |
| 2026-05-04 14:42 | 34.05244 | -83.90524 | 5031 ft | 220 kts | 280° |
| 2026-05-04 14:43 | 34.05515 | -83.92334 | 4977 ft | 218 kts | 280° |
| 2026-05-04 14:43 | 34.05785 | -83.94111 | 4997 ft | 216 kts | 280° |
| 2026-05-04 14:43 | 34.06061 | -83.95894 | 5021 ft | 213 kts | 280° |
| 2026-05-04 14:43 | 34.06332 | -83.97663 | 5001 ft | 211 kts | 280° |
| 2026-05-04 14:44 | 34.06601 | -83.99435 | 4974 ft | 219 kts | 280° |
| 2026-05-04 14:44 | 34.06876 | -84.01213 | 4996 ft | 216 kts | 280° |
| 2026-05-04 14:44 | 34.07152 | -84.02982 | 5021 ft | 214 kts | 280° |
| 2026-05-04 14:44 | 34.07424 | -84.04773 | 5002 ft | 216 kts | 280° |
| 2026-05-04 14:45 | 34.07689 | -84.06560 | 4997 ft | 216 kts | 280° |
| 2026-05-04 14:45 | 34.07960 | -84.08323 | 4987 ft | 215 kts | 280° |
| 2026-05-04 14:45 | 34.08232 | -84.10085 | 4993 ft | 213 kts | 280° |
| 2026-05-04 14:45 | 34.08499 | -84.11868 | 4956 ft | 217 kts | 280° |
| 2026-05-04 14:46 | 34.08765 | -84.13647 | 5014 ft | 216 kts | 280° |
| 2026-05-04 14:46 | 34.09038 | -84.15435 | 5001 ft | 216 kts | 281° |
| 2026-05-04 14:46 | 34.09232 | -84.17225 | 4961 ft | 217 kts | 267° |
| 2026-05-04 14:46 | 34.08595 | -84.18854 | 4885 ft | 222 kts | 226° |
| 2026-05-04 14:47 | 34.07253 | -84.19701 | 4950 ft | 221 kts | 200° |
| 2026-05-04 14:47 | 34.05696 | -84.19811 | 4963 ft | 231 kts | 172° |
| 2026-05-04 14:47 | 34.04202 | -84.19144 | 5027 ft | 230 kts | 158° |
| 2026-05-04 14:47 | 34.02732 | -84.18333 | 5002 ft | 233 kts | 158° |
| 2026-05-04 14:48 | 34.01244 | -84.17620 | 5000 ft | 227 kts | 161° |
| 2026-05-04 14:48 | 33.99748 | -84.16968 | 5007 ft | 231 kts | 162° |
| 2026-05-04 14:48 | 33.98249 | -84.16306 | 5008 ft | 229 kts | 161° |
| 2026-05-04 14:48 | 33.96747 | -84.15625 | 4970 ft | 232 kts | 161° |
| 2026-05-04 14:49 | 33.95245 | -84.14934 | 4996 ft | 231 kts | 161° |
| 2026-05-04 14:49 | 33.93734 | -84.14246 | 4997 ft | 233 kts | 161° |
| 2026-05-04 14:49 | 33.92232 | -84.13570 | 5008 ft | 227 kts | 162° |
| 2026-05-04 14:49 | 33.90745 | -84.12898 | 5003 ft | 229 kts | 161° |
| 2026-05-04 14:50 | 33.89256 | -84.12222 | 4993 ft | 228 kts | 161° |
| 2026-05-04 14:50 | 33.87779 | -84.11563 | 5004 ft | 228 kts | 162° |
| 2026-05-04 14:50 | 33.86292 | -84.10898 | 5002 ft | 229 kts | 161° |
| 2026-05-04 14:50 | 33.84800 | -84.10219 | 5002 ft | 230 kts | 161° |
| 2026-05-04 14:51 | 33.83295 | -84.09541 | 5003 ft | 230 kts | 161° |
| 2026-05-04 14:51 | 33.81791 | -84.08862 | 4998 ft | 230 kts | 161° |
| 2026-05-04 14:51 | 33.80293 | -84.08186 | 4999 ft | 229 kts | 161° |
| 2026-05-04 14:51 | 33.78807 | -84.07518 | 5000 ft | 229 kts | 161° |
| 2026-05-04 14:52 | 33.77314 | -84.06846 | 4995 ft | 228 kts | 161° |
| 2026-05-04 14:52 | 33.75829 | -84.06178 | 5000 ft | 228 kts | 161° |
| 2026-05-04 14:52 | 33.74340 | -84.05508 | 4991 ft | 229 kts | 161° |
| 2026-05-04 14:52 | 33.72844 | -84.04836 | 4979 ft | 230 kts | 161° |
| 2026-05-04 14:53 | 33.71353 | -84.04165 | 4992 ft | 228 kts | 161° |
| 2026-05-04 14:53 | 33.69867 | -84.03495 | 4989 ft | 228 kts | 161° |
| 2026-05-04 14:53 | 33.68378 | -84.02840 | 4973 ft | 229 kts | 163° |
| 2026-05-04 14:53 | 33.66827 | -84.02736 | 4936 ft | 224 kts | 196° |
| 2026-05-04 14:54 | 33.65494 | -84.03623 | 4962 ft | 219 kts | 225° |
| 2026-05-04 14:54 | 33.64736 | -84.05172 | 4968 ft | 218 kts | 255° |
| 2026-05-04 14:54 | 33.64630 | -84.06986 | 5005 ft | 218 kts | 270° |
| 2026-05-04 14:54 | 33.64645 | -84.08816 | 4982 ft | 220 kts | 270° |
| 2026-05-04 14:55 | 33.64647 | -84.10632 | 5005 ft | 216 kts | 270° |
| 2026-05-04 14:55 | 33.64650 | -84.12443 | 5003 ft | 217 kts | 270° |
| 2026-05-04 14:55 | 33.64655 | -84.14271 | 4993 ft | 220 kts | 270° |
| 2026-05-04 14:55 | 33.64659 | -84.16109 | 4949 ft | 221 kts | 270° |
| 2026-05-04 14:56 | 33.64662 | -84.17976 | 4651 ft | 221 kts | 270° |
| 2026-05-04 14:56 | 33.64664 | -84.19782 | 4412 ft | 218 kts | 270° |
| 2026-05-04 14:56 | 33.64664 | -84.21603 | 4092 ft | 217 kts | 270° |
| 2026-05-04 14:56 | 33.64672 | -84.23400 | 3810 ft | 213 kts | 270° |
| 2026-05-04 14:57 | 33.64674 | -84.25181 | 3522 ft | 213 kts | 270° |
| 2026-05-04 14:57 | 33.64675 | -84.26943 | 3234 ft | 211 kts | 270° |
| 2026-05-04 14:57 | 33.64677 | -84.28693 | 2948 ft | 209 kts | 270° |
| 2026-05-04 14:57 | 33.64677 | -84.30422 | 2686 ft | 208 kts | 270° |
| 2026-05-04 14:58 | 33.64678 | -84.32163 | 2425 ft | 209 kts | 270° |
| 2026-05-04 14:58 | 33.64680 | -84.33902 | 2125 ft | 207 kts | 269° |
| 2026-05-04 14:58 | 33.64679 | -84.35632 | 1847 ft | 208 kts | 269° |
| 2026-05-04 14:58 | 33.64678 | -84.37359 | 1552 ft | 207 kts | 269° |
| 2026-05-04 14:59 | 33.64688 | -84.39082 | 1320 ft | 204 kts | 271° |
| 2026-05-04 14:59 | 33.64671 | -84.40637 | 1049 ft | 168 kts | 270° |
| 2026-05-04 14:59 | 33.64684 | -84.42506 | 1001 ft | 55 kts | 270° |
| 2026-05-04 15:00 | 33.64685 | -84.42712 | 1002 ft | 0 kts | 271° |